Quick Links (Output Below):   Max & Min Temps   /   Climate Reports   /   Zone Forecasts
River Forecasts   /   Forestry Forecasts   /   Aviation Forecasts   /   Radars   /   Features

Terminal Aerodrome Forecast (Mountain Home)

Pick a Site:
Arkadelphia | El Dorado | Fayetteville | Fort Smith | Harrison | Highfill | Hot Springs | Jonesboro
Little Rock | Monticello | Mountain Home | Pine Bluff | Texarkana
 Forecast 

KBPK 202333Z 2100/2124 18007KT P6SM SCT050 BKN250
     FM210500 15006KT P6SM VCSH BKN100 OVC250
     FM210900 14006KT P6SM VCSH SCT020 BKN080 OVC100
      TEMPO 2111/2115 5SM -TSRA BR BKN035CB OVC050
     FM211500 16007KT P6SM -SHRA BKN050 OVC100
     FM211800 23009KT P6SM -TSRA BKN040CB OVC100=


 Latest METARs (Observations) 
How to Decode METARs
23Z KBPK 202253Z AUTO 19004KT 9SM CLR 26/07 A3005 RMK AO2 SLP171
         T02560072
         
22Z KBPK 202153Z AUTO 19005KT 10SM CLR 26/07 A3006 RMK AO2 SLP172
         T02610067
         
21Z KBPK 202053Z AUTO 19005KT 10SM BKN075 27/07 A3009 RMK AO2 SLP181
         T02670067 56017
         
20Z KBPK 201953Z AUTO VRB03KT 10SM CLR 26/06 A3010 RMK AO2 SLP185
         T02560061
         
19Z KBPK 201853Z AUTO 19008KT 10SM CLR 27/07 A3012 RMK AO2 SLP190
         T02670072
         
18Z KBPK 201753Z AUTO 15006KT 9SM SCT060 24/08 A3014 RMK AO2 SLP199
         T02440083 10250 20122 58019
         
17Z KBPK 201653Z AUTO 18007KT 150V250 9SM CLR 23/08 A3017 RMK AO2
         SLP210 T02330078
         
16Z KBPK 201553Z AUTO 19005KT 9SM CLR 23/08 A3019 RMK AO2 SLP217
         T02280083
         
15Z KBPK 201453Z AUTO 00000KT 8SM FEW060 21/08 A3020 RMK AO2 SLP219
         T02060078 51003
         
14Z KBPK 201353Z AUTO 15003KT 8SM CLR 18/08 A3020 RMK AO2 SLP219
         T01780078
         
***** Today's Observations (Above) *****


Back to Main Page
http://www.srh.noaa.gov/lzk/qfcst.php

USA.gov is the U.S. government's official web portal to all federal, state and local government web resources and services.